This is the latest recevied weather packets stored in our database for station/object W0BJ-1. If no packets are shown the sender has not sent any weather packets the latest 10 day(s).
| Time | Temp. | Humidity | Pressure | Rain* | Wind** | Luminosity | Snow |
|---|---|---|---|---|---|---|---|
| 1777326351 | 19.44° C | 93% | 1001.2 hPa | 0 mm | - | 19 W/m² | - |
| 1777326039 | 19.44° C | 93% | 1001.2 hPa | 0 mm | - | 18 W/m² | - |
| 1777325140 | 19.44° C | 93% | 1001.4 hPa | 0 mm | - | 77 W/m² | - |
| 1777324840 | 19.44° C | 93% | 1001.3 hPa | 0 mm | - | 128 W/m² | - |
| 1777324561 | 20° C | 93% | 1001.5 hPa | 0.25 mm | - | 156 W/m² | - |
| 1777324239 | 20° C | 94% | 1001.5 hPa | 0.25 mm | - | 195 W/m² | - |
| 1777323939 | 20° C | 94% | 1001.8 hPa | 0.25 mm | - | 221 W/m² | - |
| 1777323652 | 20° C | 94% | 1002.2 hPa | 0.25 mm | - | 241 W/m² | - |
| 1777317938 | 17.22° C | 93% | 1003.1 hPa | 0 mm | - | 33 W/m² | - |
| 1777315549 | 16.67° C | 93% | 1003.6 hPa | 0.76 mm | - | 186 W/m² | - |
| 1777315239 | 16.67° C | 93% | 1003.4 hPa | 1.02 mm | - | 169 W/m² | - |
| 1777313142 | 16.67° C | 93% | 1003.8 hPa | 1.02 mm | - | 151 W/m² | - |
| 1777311641 | 16.11° C | 93% | 1004.9 hPa | 2.54 mm | - | 46 W/m² | - |
| 1777309538 | 15.56° C | 93% | 1005.1 hPa | 21.59 mm | - | 26 W/m² | - |
| 1777308938 | 15.56° C | 92% | 1005.9 hPa | 22.1 mm | - | 18 W/m² | - |
| 1777305939 | 15.56° C | 91% | 1006.1 hPa | 18.54 mm | - | 0 W/m² | - |
| 1777305660 | 15.56° C | 91% | 1005.9 hPa | 18.03 mm | - | 7 W/m² | - |
| 1777304751 | 15.56° C | 90% | 1007.8 hPa | 13.97 mm | - | 0 W/m² | - |
| 1777301438 | 16.67° C | 86% | 1006.4 hPa | 0 mm | - | 0 W/m² | - |
| 1777300839 | 17.22° C | 90% | 1007.5 hPa | 0 mm | - | 0 W/m² | - |
| 1777299638 | 17.22° C | 90% | 1005.9 hPa | 0 mm | - | 18 W/m² | - |
| 1777298139 | 17.22° C | 90% | 1006.2 hPa | 0 mm | - | 12 W/m² | - |
| 1777297548 | 17.22° C | 90% | 1005.6 hPa | 0 mm | - | 25 W/m² | - |
| 1777296938 | 16.67° C | 91% | 1005.1 hPa | 0 mm | - | 26 W/m² | - |
| 1777296042 | 16.67° C | 91% | 1005.2 hPa | 0 mm | - | 88 W/m² | - |
* Rain latest hour (hover to see other rain measurements)
** Current wind speed in m/s (hover to see current wind gust speed)